Time;durP1;ratioP1;P1;durP2;ratioP2;P2;SDS_P1;SDS_P2;PMS_P1;PMS_P2;Temp;Humidity;BMP_temperature;BMP_pressure;BME280_temperature;BME280_humidity;BME280_pressure;Samples;Min_cycle;Max_cycle;Signal;HPM_P1;HPM_P2
2022/01/30 00:01:04;;;;;;;90.38;50.30;;;;;;;5.17;52.99;101167.41;5075428;23;20058;-84
2022/01/30 00:03:29;;;;;;;71.55;38.50;;;;;;;5.25;53.15;101189.22;5106238;23;20533;-84
2022/01/30 00:05:57;;;;;;;86.80;34.70;;;;;;;5.18;53.42;101175.31;5067265;28;20025;-82
2022/01/30 00:08:31;;;;;;;65.88;29.35;;;;;;;5.38;53.24;101195.66;5054722;28;20029;-83
2022/01/30 00:11:04;;;;;;;47.25;22.33;;;;;;;5.38;53.22;101199.16;5055060;28;20082;-83
2022/01/30 00:13:30;;;;;;;55.88;25.90;;;;;;;5.20;53.22;101178.78;5054351;28;20104;-83
2022/01/30 00:15:56;;;;;;;44.10;21.67;;;;;;;5.20;53.17;101172.59;5054186;28;20033;-84
2022/01/30 00:23:27;;;;;;;39.80;17.42;;;;;;;5.17;53.06;101186.91;5055023;28;20035;-84
2022/01/30 00:25:55;;;;;;;33.70;15.75;;;;;;;5.31;53.37;101187.09;5036960;28;20053;-84
2022/01/30 00:28:24;;;;;;;27.88;14.63;;;;;;;5.25;52.99;101198.09;5056220;28;20021;-84
2022/01/30 00:30:49;;;;;;;26.17;17.20;;;;;;;5.21;52.89;101180.50;5056508;28;20028;-83
2022/01/30 00:33:15;;;;;;;27.30;15.82;;;;;;;5.07;52.99;101166.16;5056114;28;20116;-82
2022/01/30 00:35:41;;;;;;;31.30;16.98;;;;;;;5.15;53.33;101179.94;5055167;28;20029;-83
2022/01/30 00:38:15;;;;;;;34.83;17.38;;;;;;;4.97;53.26;101155.06;5055537;28;20047;-83
2022/01/30 00:40:42;;;;;;;32.10;18.88;;;;;;;5.13;53.44;101171.16;5044736;28;20029;-83
2022/01/30 00:43:09;;;;;;;48.53;20.70;;;;;;;5.00;53.46;101154.91;5063929;28;20040;-84
2022/01/30 00:45:34;;;;;;;48.28;20.40;;;;;;;5.06;53.12;101159.94;5049980;28;20056;-83
2022/01/30 00:48:00;;;;;;;42.95;21.52;;;;;;;4.70;53.77;101130.66;5078113;28;20017;-83
2022/01/30 00:50:27;;;;;;;34.38;20.35;;;;;;;4.93;53.70;101166.81;5078969;28;20031;-83
2022/01/30 00:52:55;;;;;;;57.00;25.52;;;;;;;4.83;53.83;101153.06;5032377;28;20083;-83
2022/01/30 00:55:25;;;;;;;53.67;25.35;;;;;;;4.71;53.92;101134.19;5056607;28;20108;-83
2022/01/30 00:57:51;;;;;;;56.95;24.75;;;;;;;4.72;54.14;101138.56;5053694;28;20192;-83
2022/01/30 01:00:17;;;;;;;54.92;25.27;;;;;;;4.72;53.82;101133.25;5053552;28;20036;-78
2022/01/30 01:02:43;;;;;;;79.80;32.20;;;;;;;4.69;53.77;101139.59;5052458;28;20025;-79
2022/01/30 01:05:09;;;;;;;59.17;25.48;;;;;;;4.74;53.75;101136.72;5052466;28;20467;-79
2022/01/30 01:07:35;;;;;;;80.68;27.67;;;;;;;4.76;53.45;101143.69;5052774;28;20041;-79
2022/01/30 01:10:26;;;;;;;109.50;39.47;;;;;;;4.69;53.78;101133.38;5052609;28;20028;-79
2022/01/30 01:23:33;;;;;;;32.55;17.27;;;;;;;4.42;54.44;101092.13;5052565;28;20075;-79
2022/01/30 01:26:00;;;;;;;33.15;20.05;;;;;;;4.51;54.13;101091.66;5052608;28;20028;-79
2022/01/30 01:28:26;;;;;;;33.85;19.15;;;;;;;4.59;54.13;101089.47;5034504;28;20029;-79
2022/01/30 01:30:53;;;;;;;29.35;16.90;;;;;;;4.54;54.12;101080.88;5051930;28;20406;-79
2022/01/30 01:33:20;;;;;;;27.80;16.30;;;;;;;4.45;54.25;101066.22;5052230;28;20104;-79
2022/01/30 01:35:45;;;;;;;37.15;17.20;;;;;;;4.50;54.25;101052.66;5052161;28;20384;-79
2022/01/30 01:38:14;;;;;;;30.42;16.73;;;;;;;4.52;54.17;101056.13;5052063;28;20093;-79
2022/01/30 01:40:41;;;;;;;31.23;18.20;;;;;;;4.44;53.95;101045.84;5034382;28;20109;-80
2022/01/30 01:43:07;;;;;;;36.60;18.40;;;;;;;4.27;54.42;101036.03;5051908;28;20371;-79
2022/01/30 01:45:39;;;;;;;28.48;16.52;;;;;;;4.30;54.62;101035.00;5052106;28;20036;-79
2022/01/30 01:48:13;;;;;;;27.95;15.88;;;;;;;4.20;54.54;101034.59;5052078;28;20032;-79
2022/01/30 01:50:42;;;;;;;28.58;15.80;;;;;;;4.13;54.89;101035.81;5052057;28;20083;-80
2022/01/30 01:53:14;;;;;;;31.55;16.75;;;;;;;4.18;55.03;101025.84;5051986;28;20025;-79
2022/01/30 01:55:41;;;;;;;20.98;14.32;;;;;;;4.19;54.68;101005.41;5051837;28;20047;-79
2022/01/30 01:58:07;;;;;;;26.35;14.43;;;;;;;4.32;54.82;101017.16;5052611;28;20025;-78
2022/01/30 02:00:34;;;;;;;25.02;14.55;;;;;;;4.30;54.68;101011.06;5052218;28;20433;-79
2022/01/30 02:03:02;;;;;;;25.52;15.02;;;;;;;4.27;54.39;101008.53;5032201;28;20517;-78
2022/01/30 02:05:33;;;;;;;32.58;14.80;;;;;;;4.24;54.32;101003.38;5031814;28;20055;-80
2022/01/30 02:10:45;;;;;;;23.05;14.38;;;;;;;4.23;54.69;100991.84;5031995;28;20029;-81
2022/01/30 02:27:38;;;;;;;22.55;12.15;;;;;;;4.26;53.99;101005.00;5052114;28;20032;-79
2022/01/30 02:30:14;;;;;;;20.40;12.02;;;;;;;4.20;54.23;101002.66;5018987;28;20025;-78
2022/01/30 02:32:41;;;;;;;17.75;11.48;;;;;;;3.97;54.42;100980.75;5031796;28;20037;-78
2022/01/30 02:35:06;;;;;;;24.65;12.60;;;;;;;3.81;55.40;100984.16;5031166;28;20109;-78
2022/01/30 02:37:32;;;;;;;23.75;13.80;;;;;;;3.72;55.14;100978.41;5031657;28;20454;-79
2022/01/30 02:39:58;;;;;;;23.52;12.50;;;;;;;3.75;55.43;100986.25;5031702;28;20033;-80
2022/01/30 02:42:27;;;;;;;21.75;11.75;;;;;;;3.57;55.61;100977.34;5032754;28;20040;-80
2022/01/30 02:44:57;;;;;;;26.42;14.00;;;;;;;3.60;55.72;100974.56;5035370;28;20022;-79
2022/01/30 02:47:54;;;;;;;23.92;13.18;;;;;;;3.58;55.87;100970.22;5035523;28;20057;-79
2022/01/30 02:50:16;;;;;;;30.67;13.25;;;;;;;3.46;55.69;100950.38;5034443;28;20087;-79
2022/01/30 02:52:44;;;;;;;28.25;15.60;;;;;;;3.60;56.04;100965.69;5035818;28;20029;-80
2022/01/30 02:55:12;;;;;;;26.88;15.63;;;;;;;3.66;56.05;100962.75;5017712;28;20056;-80
2022/01/30 02:57:38;;;;;;;42.92;22.38;;;;;;;3.70;55.99;100959.03;5035859;28;20029;-79
2022/01/30 03:00:05;;;;;;;24.60;13.43;;;;;;;3.70;55.59;100948.38;5035775;28;20495;-79
2022/01/30 03:02:31;;;;;;;20.50;12.82;;;;;;;3.66;55.72;100929.03;5035605;28;20057;-79
2022/01/30 03:04:56;;;;;;;32.72;17.40;;;;;;;3.68;55.53;100918.31;5052697;28;20061;-79
2022/01/30 03:07:22;;;;;;;31.35;16.33;;;;;;;3.72;55.80;100914.59;5055338;28;20087;-79
2022/01/30 03:09:47;;;;;;;41.78;20.15;;;;;;;3.66;55.60;100910.44;5055336;28;20411;-79
2022/01/30 03:12:13;;;;;;;56.22;31.92;;;;;;;3.82;55.75;100923.84;5055573;28;20024;-80
2022/01/30 03:14:38;;;;;;;32.38;17.77;;;;;;;3.61;55.75;100914.22;5055421;28;20110;-80
2022/01/30 03:17:04;;;;;;;30.55;18.40;;;;;;;3.53;55.87;100900.44;5055250;28;20206;-79
2022/01/30 03:19:29;;;;;;;33.20;18.30;;;;;;;3.57;56.12;100896.72;5054876;28;20112;-79
2022/01/30 03:21:55;;;;;;;47.47;26.20;;;;;;;3.56;55.72;100906.47;5055057;28;20055;-79
2022/01/30 03:24:20;;;;;;;31.55;16.80;;;;;;;3.49;56.04;100912.16;5037096;28;20440;-79
2022/01/30 03:26:46;;;;;;;24.23;14.80;;;;;;;3.58;55.99;100907.25;5054899;28;20028;-79
2022/01/30 03:29:11;;;;;;;25.90;15.07;;;;;;;3.60;56.28;100891.25;5054737;28;20028;-79
2022/01/30 03:31:39;;;;;;;25.63;15.63;;;;;;;3.73;56.11;100901.19;5054670;28;20112;-79
2022/01/30 03:34:07;;;;;;;25.85;15.48;;;;;;;3.70;55.52;100911.16;5054493;28;20036;-79
2022/01/30 03:36:33;;;;;;;24.90;15.45;;;;;;;3.74;55.68;100891.41;5054797;28;20163;-80
2022/01/30 03:38:59;;;;;;;26.10;13.88;;;;;;;3.82;55.46;100891.94;5055032;28;20104;-80
2022/01/30 03:41:26;;;;;;;23.35;14.30;;;;;;;3.75;55.25;100888.69;5064806;28;20141;-87
2022/01/30 03:43:52;;;;;;;24.25;14.75;;;;;;;3.67;55.12;100887.34;5050319;28;20035;-89
2022/01/30 03:46:22;;;;;;;23.63;14.02;;;;;;;3.70;55.20;100869.44;5068947;28;20041;-87
2022/01/30 03:48:47;;;;;;;28.80;15.10;;;;;;;3.65;54.98;100854.63;5067672;28;20033;-89
2022/01/30 03:51:13;;;;;;;33.67;16.60;;;;;;;3.74;54.97;100870.13;5038290;28;20052;-87
2022/01/30 03:53:39;;;;;;;39.67;18.55;;;;;;;3.74;54.44;100862.16;5038302;28;20775;-87
2022/01/30 03:56:05;;;;;;;27.02;16.25;;;;;;;3.71;54.76;100868.50;5038927;28;20041;-87
2022/01/30 03:58:32;;;;;;;27.00;16.40;;;;;;;3.83;54.89;100880.31;5056420;28;20029;-88
2022/01/30 04:00:57;;;;;;;30.85;15.75;;;;;;;3.70;54.81;100852.63;5037728;28;20474;-87
2022/01/30 04:03:23;;;;;;;24.67;14.55;;;;;;;3.64;54.60;100852.94;5037978;28;20059;-88
2022/01/30 04:05:51;;;;;;;28.35;15.13;;;;;;;3.65;54.76;100854.63;5066961;28;20008;-88
2022/01/30 04:08:16;;;;;;;23.48;14.80;;;;;;;3.69;54.33;100858.88;5055287;28;20041;-87
2022/01/30 04:10:43;;;;;;;29.83;14.05;;;;;;;3.55;54.80;100850.69;5064011;28;20437;-87
2022/01/30 04:13:09;;;;;;;23.25;14.52;;;;;;;3.62;54.56;100854.78;5055850;28;20021;-88
2022/01/30 04:15:34;;;;;;;24.15;14.55;;;;;;;3.70;54.66;100865.94;5055577;28;20029;-87
2022/01/30 04:18:01;;;;;;;24.10;15.23;;;;;;;3.64;54.58;100850.28;5056086;28;20028;-87
2022/01/30 04:20:28;;;;;;;25.10;15.70;;;;;;;3.69;54.34;100850.91;5055997;28;20021;-86
2022/01/30 04:22:53;;;;;;;33.42;15.80;;;;;;;3.73;54.45;100863.13;5055376;28;20036;-86
2022/01/30 04:25:19;;;;;;;22.98;12.82;;;;;;;3.62;54.41;100831.72;5037507;28;20399;-86
2022/01/30 04:27:45;;;;;;;18.80;12.35;;;;;;;3.69;54.29;100835.81;5037788;28;20024;-88
2022/01/30 04:30:11;;;;;;;30.90;11.98;;;;;;;3.68;54.29;100831.41;5055799;28;20063;-85
2022/01/30 04:32:42;;;;;;;20.05;12.82;;;;;;;3.87;54.04;100844.66;5037725;28;20544;-86
2022/01/30 04:35:16;;;;;;;20.98;12.45;;;;;;;3.79;53.92;100822.91;5055750;28;20068;-86
2022/01/30 04:37:58;;;;;;;22.25;12.40;;;;;;;3.79;53.65;100814.94;5056237;28;20033;-87
2022/01/30 04:54:38;;;;;;;23.67;11.80;;;;;;;3.70;53.79;100810.91;5056650;28;20119;-88
2022/01/30 05:05:22;;;;;;;44.63;13.00;;;;;;;3.74;53.76;100806.31;5044451;28;20105;-88
2022/01/30 05:09:28;;;;;;;28.42;14.00;;;;;;;3.70;53.50;100783.47;5046152;28;20025;-88
2022/01/30 05:11:54;;;;;;;33.55;15.43;;;;;;;3.68;53.49;100793.31;5017847;28;20084;-88
2022/01/30 05:14:24;;;;;;;27.13;13.80;;;;;;;3.78;53.64;100803.44;5035056;28;20045;-88
2022/01/30 05:16:49;;;;;;;26.25;12.93;;;;;;;3.84;53.17;100810.22;5054562;28;20030;-88
2022/01/30 05:19:16;;;;;;;27.25;13.02;;;;;;;3.84;52.94;100804.91;5020425;28;20036;-88
2022/01/30 05:21:42;;;;;;;24.27;12.77;;;;;;;3.59;53.04;100770.72;5036521;28;20021;-88
2022/01/30 05:24:08;;;;;;;34.83;17.48;;;;;;;3.54;53.09;100777.22;5017704;28;20037;-89
2022/01/30 05:26:43;;;;;;;36.28;19.00;;;;;;;3.52;53.33;100763.97;5017986;28;20175;-88
2022/01/30 05:29:09;;;;;;;43.35;21.38;;;;;;;3.62;53.39;100785.66;5039445;28;20040;-87
2022/01/30 05:31:35;;;;;;;34.53;18.77;;;;;;;3.47;53.07;100762.50;5021494;28;20026;-88
2022/01/30 05:34:01;;;;;;;26.45;16.95;;;;;;;3.50;53.43;100781.81;5019595;28;20040;-86
2022/01/30 05:36:29;;;;;;;25.15;15.48;;;;;;;3.23;53.47;100756.59;5035310;28;20079;-86
2022/01/30 05:38:55;;;;;;;23.83;14.68;;;;;;;2.95;54.22;100751.75;5018193;28;20097;-86
2022/01/30 05:41:21;;;;;;;28.88;15.45;;;;;;;2.77;54.53;100733.19;5017345;28;20088;-87
2022/01/30 05:43:51;;;;;;;25.83;15.93;;;;;;;2.91;54.85;100749.31;5035351;28;20029;-87
2022/01/30 05:46:29;;;;;;;29.90;13.70;;;;;;;2.80;54.93;100736.56;5047296;28;20045;-87
2022/01/30 05:48:57;;;;;;;22.05;13.55;;;;;;;2.89;55.21;100741.44;5132015;23;20126;-86
2022/01/30 05:51:22;;;;;;;26.88;14.95;;;;;;;2.86;55.22;100716.81;5035227;28;20029;-86
2022/01/30 05:53:48;;;;;;;29.55;15.10;;;;;;;2.97;54.81;100715.34;5036202;28;20375;-87
2022/01/30 05:56:13;;;;;;;25.20;14.43;;;;;;;3.17;54.73;100739.16;5040025;28;20119;-88
2022/01/30 05:58:40;;;;;;;30.90;14.27;;;;;;;3.32;54.89;100744.66;5038747;28;20021;-86
2022/01/30 06:01:05;;;;;;;20.73;12.95;;;;;;;3.35;54.36;100729.41;5041197;28;20116;-87
2022/01/30 06:03:31;;;;;;;28.58;15.30;;;;;;;3.27;54.06;100692.56;5036092;28;20020;-87
2022/01/30 06:05:57;;;;;;;24.08;14.48;;;;;;;3.47;54.25;100709.31;5035166;28;20024;-87
2022/01/30 06:08:41;;;;;;;28.00;14.32;;;;;;;3.55;54.37;100715.09;5026321;28;20026;-87
2022/01/30 06:11:08;;;;;;;29.55;16.20;;;;;;;3.61;54.24;100712.13;5031501;28;20021;-78
2022/01/30 06:13:34;;;;;;;32.85;17.38;;;;;;;3.65;54.07;100705.72;5031506;28;20147;-79
2022/01/30 06:16:00;;;;;;;26.42;16.48;;;;;;;3.59;53.62;100696.25;5032940;28;20048;-85
2022/01/30 06:18:26;;;;;;;35.97;15.40;;;;;;;3.70;53.61;100703.69;5032982;28;20487;-86
2022/01/30 06:20:52;;;;;;;31.58;15.50;;;;;;;3.77;53.47;100707.72;5035836;28;20040;-86
2022/01/30 06:23:17;;;;;;;31.42;18.50;;;;;;;3.82;53.37;100687.09;5038845;28;20033;-84
2022/01/30 06:25:42;;;;;;;30.58;16.98;;;;;;;3.96;53.31;100687.22;5034684;28;20599;-85
2022/01/30 06:28:08;;;;;;;31.83;15.50;;;;;;;3.98;53.11;100677.34;5016122;28;20468;-85
2022/01/30 06:30:33;;;;;;;29.55;15.70;;;;;;;3.93;53.12;100673.19;5033458;28;20029;-85
2022/01/30 06:32:59;;;;;;;32.75;17.38;;;;;;;4.05;52.81;100689.38;5033258;28;20399;-85
2022/01/30 06:35:25;;;;;;;29.42;15.02;;;;;;;4.13;52.92;100692.47;5015355;28;20040;-84
2022/01/30 06:37:50;;;;;;;30.70;16.50;;;;;;;3.94;52.46;100672.28;5015663;28;20104;-84
2022/01/30 06:40:16;;;;;;;27.65;13.80;;;;;;;3.89;52.82;100671.63;5015081;28;20036;-86
2022/01/30 06:42:41;;;;;;;25.15;14.15;;;;;;;4.07;52.90;100697.25;5033021;28;20075;-86
2022/01/30 06:45:08;;;;;;;25.52;12.25;;;;;;;4.21;52.08;100692.94;5032584;28;20052;-87
2022/01/30 06:47:42;;;;;;;27.95;15.50;;;;;;;3.98;52.38;100666.69;5035024;28;20025;-86
2022/01/30 06:50:09;;;;;;;25.77;13.75;;;;;;;4.12;52.25;100684.59;5052700;28;20025;-85
2022/01/30 06:52:35;;;;;;;23.08;14.65;;;;;;;3.94;52.36;100662.50;5035199;28;20021;-85
2022/01/30 06:55:00;;;;;;;24.17;14.30;;;;;;;4.00;52.68;100670.16;5051772;28;20100;-83
2022/01/30 06:57:26;;;;;;;26.80;14.88;;;;;;;4.07;52.19;100662.66;5058617;28;20067;-86
2022/01/30 06:59:51;;;;;;;26.40;13.32;;;;;;;4.03;52.18;100656.69;5037248;28;20040;-83
2022/01/30 07:02:16;;;;;;;28.60;14.90;;;;;;;4.13;52.19;100683.63;5054113;28;20029;-87
2022/01/30 07:04:42;;;;;;;21.40;12.73;;;;;;;4.13;52.27;100663.19;5036145;28;20497;-88
2022/01/30 07:07:07;;;;;;;27.75;13.07;;;;;;;4.21;51.87;100674.31;5034317;28;20028;-82
2022/01/30 07:09:33;;;;;;;25.58;13.45;;;;;;;4.27;51.63;100673.97;5053108;28;20025;-87
2022/01/30 07:12:00;;;;;;;30.25;13.32;;;;;;;4.21;51.89;100682.28;5053182;28;20024;-88
2022/01/30 07:14:29;;;;;;;22.60;13.60;;;;;;;4.17;51.98;100675.41;5053719;28;20055;-90
2022/01/30 07:16:55;;;;;;;22.67;13.18;;;;;;;4.25;52.04;100675.84;5036879;28;20433;-89
2022/01/30 07:19:21;;;;;;;19.95;13.02;;;;;;;4.21;52.06;100647.69;5054109;28;20037;-90
2022/01/30 07:21:46;;;;;;;23.42;11.50;;;;;;;4.40;51.53;100677.66;5036978;28;20119;-85
2022/01/30 07:24:12;;;;;;;29.17;13.70;;;;;;;4.42;51.38;100676.72;5054143;28;20040;-91
2022/01/30 07:26:37;;;;;;;26.98;13.98;;;;;;;4.53;51.73;100675.19;5052444;28;20466;-83
2022/01/30 07:29:06;;;;;;;28.45;15.95;;;;;;;4.58;51.40;100662.47;5072077;28;20025;-82
2022/01/30 07:31:33;;;;;;;29.40;14.48;;;;;;;4.61;51.22;100642.81;5037750;28;20107;-84
2022/01/30 07:33:59;;;;;;;31.77;14.32;;;;;;;4.68;51.35;100646.84;5055805;28;20021;-84
2022/01/30 07:36:26;;;;;;;28.35;13.77;;;;;;;4.71;50.87;100636.84;5038598;28;20483;-85
2022/01/30 07:38:51;;;;;;;27.30;14.77;;;;;;;4.76;50.73;100641.94;5056278;28;20033;-85
2022/01/30 07:41:17;;;;;;;33.33;15.43;;;;;;;4.80;51.05;100648.81;5021425;28;20032;-84
2022/01/30 07:43:43;;;;;;;31.65;15.50;;;;;;;4.84;50.90;100642.34;5037602;28;20025;-83
2022/01/30 07:46:08;;;;;;;27.95;14.32;;;;;;;4.91;50.55;100638.38;5056030;28;20399;-84
2022/01/30 07:48:34;;;;;;;39.85;16.83;;;;;;;5.00;50.78;100616.53;5036852;28;20507;-84
2022/01/30 07:50:59;;;;;;;38.03;17.42;;;;;;;5.22;50.04;100630.31;5067166;28;20478;-84
2022/01/30 07:53:25;;;;;;;32.20;16.52;;;;;;;5.31;49.21;100624.44;5076282;28;20033;-84
2022/01/30 07:55:51;;;;;;;26.85;14.20;;;;;;;5.25;48.76;100598.13;5075907;28;20025;-85
2022/01/30 07:58:16;;;;;;;37.88;14.70;;;;;;;5.59;48.64;100628.09;5074754;28;20418;-84
2022/01/30 08:00:42;;;;;;;28.98;13.93;;;;;;;5.56;48.15;100605.13;5074870;28;20024;-85
2022/01/30 08:03:07;;;;;;;31.17;12.38;;;;;;;5.62;48.30;100598.56;5053433;28;20013;-85
2022/01/30 08:05:33;;;;;;;26.75;14.02;;;;;;;5.65;48.02;100603.72;5059330;28;20025;-86
2022/01/30 08:07:58;;;;;;;21.85;12.60;;;;;;;5.79;48.98;100601.03;5057048;28;20082;-83
2022/01/30 08:10:24;;;;;;;27.55;12.82;;;;;;;5.88;48.26;100588.00;5076507;28;20081;-85
2022/01/30 08:12:51;;;;;;;24.10;11.95;;;;;;;5.99;47.92;100576.69;5056419;28;20024;-83
2022/01/30 08:15:16;;;;;;;25.73;10.75;;;;;;;5.93;47.45;100579.72;5056400;28;20013;-87
2022/01/30 08:17:42;;;;;;;25.08;12.23;;;;;;;6.00;47.29;100575.69;5075038;28;20032;-84
2022/01/30 08:20:08;;;;;;;23.38;13.02;;;;;;;6.13;47.21;100583.78;5076871;28;20020;-81
2022/01/30 08:23:11;;;;;;;37.58;17.85;;;;;;;6.41;47.05;100605.13;5075562;28;20020;-87
2022/01/30 08:25:36;;;;;;;;;;;;;;;6.34;47.27;100599.31;5059686;28;20158;-81
2022/01/30 08:28:02;;;;;;;25.50;14.65;;;;;;;6.40;47.21;100580.22;5069755;28;19948;-82
2022/01/30 08:30:28;;;;;;;27.70;13.40;;;;;;;6.44;46.83;100583.53;5039425;28;20028;-84
2022/01/30 08:32:54;;;;;;;23.88;14.30;;;;;;;6.57;46.69;100573.78;5055533;28;20024;-84
2022/01/30 08:35:20;;;;;;;29.98;14.30;;;;;;;6.43;46.37;100561.31;5073325;28;20016;-86
2022/01/30 08:37:48;;;;;;;24.02;12.27;;;;;;;6.52;46.23;100550.03;5075640;28;20024;-83
2022/01/30 08:40:16;;;;;;;40.90;13.65;;;;;;;6.67;46.11;100545.47;5074390;28;20482;-84
2022/01/30 08:42:42;;;;;;;25.48;12.95;;;;;;;6.68;46.10;100543.66;5056506;28;20024;-85
2022/01/30 08:45:11;;;;;;;31.10;14.73;;;;;;;6.61;45.84;100531.66;5073948;28;20012;-83
2022/01/30 08:47:37;;;;;;;27.95;15.05;;;;;;;6.69;45.83;100540.91;5046719;28;20057;-85
2022/01/30 08:50:04;;;;;;;35.50;14.50;;;;;;;6.74;45.90;100535.22;5037638;28;20507;-86
2022/01/30 08:52:29;;;;;;;28.30;12.20;;;;;;;6.81;45.36;100542.75;5047900;28;20017;-84
2022/01/30 08:54:55;;;;;;;21.45;11.15;;;;;;;6.92;45.48;100558.91;5016727;28;20024;-83
2022/01/30 08:57:20;;;;;;;22.30;11.55;;;;;;;6.95;45.63;100541.81;5035196;28;20034;-81
2022/01/30 08:59:46;;;;;;;20.58;10.85;;;;;;;7.15;44.89;100527.09;5016331;28;20045;-83
2022/01/30 09:02:13;;;;;;;24.63;10.93;;;;;;;7.25;44.86;100546.91;5041279;28;20025;-85
2022/01/30 09:04:40;;;;;;;25.63;11.57;;;;;;;7.16;44.64;100529.63;5050839;28;20032;-85
2022/01/30 09:07:05;;;;;;;19.27;11.77;;;;;;;7.24;44.17;100559.41;5038821;28;20430;-83
2022/01/30 09:09:31;;;;;;;30.67;12.75;;;;;;;7.11;44.33;100535.31;5042954;28;20026;-87
2022/01/30 09:12:00;;;;;;;46.30;15.38;;;;;;;7.37;44.17;100554.91;5044888;28;20025;-84
2022/01/30 09:14:26;;;;;;;22.05;13.15;;;;;;;7.46;43.87;100559.63;5034121;28;20029;-82
2022/01/30 09:16:52;;;;;;;24.73;10.38;;;;;;;7.17;43.77;100536.72;5032769;28;20021;-83
2022/01/30 09:19:18;;;;;;;22.65;10.48;;;;;;;7.17;44.21;100560.78;5032682;28;20120;-82
2022/01/30 09:21:43;;;;;;;22.35;12.00;;;;;;;7.08;44.15;100564.09;5032783;28;20531;-82
2022/01/30 09:24:09;;;;;;;20.42;10.77;;;;;;;6.96;44.51;100544.38;5033491;28;20557;-80
2022/01/30 09:26:34;;;;;;;19.65;10.40;;;;;;;7.09;44.83;100560.47;5036355;28;20044;-82
2022/01/30 09:29:00;;;;;;;17.48;10.23;;;;;;;7.10;44.60;100564.81;5032616;28;20068;-81
2022/01/30 09:31:25;;;;;;;23.80;9.85;;;;;;;7.04;44.20;100559.88;5033406;28;20087;-84
2022/01/30 09:33:52;;;;;;;18.90;9.65;;;;;;;7.09;43.97;100573.81;5034453;28;20025;-83
2022/01/30 09:36:18;;;;;;;21.70;9.38;;;;;;;6.91;44.87;100575.91;5033185;28;20553;-83
2022/01/30 09:38:44;;;;;;;40.35;17.75;;;;;;;6.54;46.26;100588.16;5032321;28;20083;-84
2022/01/30 09:41:10;;;;;;;28.42;12.50;;;;;;;6.43;46.60;100576.47;5032470;28;20033;-82
2022/01/30 09:43:35;;;;;;;39.45;12.85;;;;;;;6.41;48.55;100583.75;5032485;28;20029;-82
2022/01/30 09:46:03;;;;;;;22.40;11.93;;;;;;;6.32;50.79;100579.84;5032487;28;20120;-82
2022/01/30 09:48:35;;;;;;;21.17;11.07;;;;;;;6.18;52.20;100597.69;5037868;28;20041;-82
2022/01/30 09:51:04;;;;;;;30.02;12.02;;;;;;;5.99;53.61;100576.69;5032411;28;20057;-83
2022/01/30 09:53:31;;;;;;;18.95;10.23;;;;;;;5.72;55.12;100557.88;5015125;28;20048;-82
2022/01/30 09:55:57;;;;;;;20.10;13.10;;;;;;;5.52;56.11;100534.25;5032344;28;20460;-82
2022/01/30 09:58:22;;;;;;;30.60;10.65;;;;;;;5.32;57.45;100556.78;5032976;28;20061;-82
2022/01/30 10:00:48;;;;;;;21.80;12.10;;;;;;;5.21;58.17;100513.94;5037499;28;20415;-82
2022/01/30 10:03:23;;;;;;;21.75;10.27;;;;;;;5.20;58.31;100514.06;5031592;28;20033;-83
2022/01/30 10:06:01;;;;;;;14.68;7.45;;;;;;;5.27;58.54;100516.22;5031970;28;20533;-83
2022/01/30 10:08:28;;;;;;;14.77;7.55;;;;;;;5.25;58.49;100520.81;5032628;28;20029;-83
2022/01/30 10:11:15;;;;;;;21.95;10.07;;;;;;;5.31;59.39;100520.44;5032092;28;20025;-83
2022/01/30 10:13:40;;;;;;;16.38;6.25;;;;;;;5.13;59.50;100492.25;5032446;28;20032;-83
2022/01/30 10:16:06;;;;;;;12.90;7.88;;;;;;;5.23;60.24;100508.53;5032727;28;20030;-82
2022/01/30 10:18:42;;;;;;;16.50;8.52;;;;;;;5.16;61.31;100488.53;5032657;28;20068;-82
2022/01/30 10:21:18;;;;;;;11.07;7.85;;;;;;;5.04;62.97;100495.47;5033787;28;20112;-84
2022/01/30 10:23:44;;;;;;;10.90;7.25;;;;;;;5.07;63.46;100503.28;5032850;28;20036;-84
2022/01/30 10:26:18;;;;;;;11.43;7.15;;;;;;;5.02;64.27;100483.16;5017307;28;20025;-81
2022/01/30 10:28:44;;;;;;;18.42;8.95;;;;;;;4.89;65.02;100481.25;5038309;28;20033;-83
2022/01/30 10:31:10;;;;;;;15.90;8.65;;;;;;;4.81;65.89;100475.53;5031902;28;20026;-81
2022/01/30 10:33:45;;;;;;;18.52;11.07;;;;;;;4.74;66.45;100462.69;5031559;28;20033;-81
2022/01/30 10:36:12;;;;;;;21.08;11.15;;;;;;;4.77;66.81;100457.16;5031718;28;20025;-83
2022/01/30 10:38:48;;;;;;;30.17;13.35;;;;;;;4.71;67.56;100438.91;5031567;28;20116;-83
2022/01/30 10:41:30;;;;;;;25.67;15.05;;;;;;;4.81;67.70;100430.25;5031439;28;20021;-81
2022/01/30 10:43:58;;;;;;;26.67;13.70;;;;;;;4.80;68.07;100393.03;5013537;28;20493;-82
2022/01/30 10:46:26;;;;;;;25.92;13.50;;;;;;;4.85;68.41;100393.63;5031991;28;20368;-82
2022/01/30 10:49:00;;;;;;;14.73;9.38;;;;;;;4.91;68.31;100391.44;5031750;28;20132;-82
2022/01/30 10:51:30;;;;;;;26.88;13.18;;;;;;;4.99;68.08;100379.41;5046694;28;20431;-83
2022/01/30 10:53:58;;;;;;;21.98;10.77;;;;;;;5.12;68.72;100375.03;5041274;28;20040;-83
2022/01/30 10:56:27;;;;;;;24.17;13.50;;;;;;;5.13;68.27;100360.78;5013994;28;20052;-81
2022/01/30 10:59:14;;;;;;;23.90;13.10;;;;;;;5.28;68.13;100360.66;5008745;28;20068;-83
2022/01/30 11:01:41;;;;;;;21.98;12.00;;;;;;;5.19;67.47;100331.06;5013172;28;20108;-81
2022/01/30 11:04:19;;;;;;;17.95;10.82;;;;;;;5.36;67.34;100349.47;5025725;28;20167;-80
2022/01/30 11:06:46;;;;;;;21.20;11.70;;;;;;;5.49;67.21;100329.94;5035843;28;20499;-80
2022/01/30 11:09:16;;;;;;;22.25;11.73;;;;;;;5.69;67.08;100330.44;5035753;28;20030;-81
2022/01/30 11:11:50;;;;;;;22.73;10.85;;;;;;;5.79;66.73;100320.84;5018032;28;20506;-84
2022/01/30 11:14:19;;;;;;;27.73;16.00;;;;;;;5.87;66.29;100313.25;5040042;28;20035;-80
2022/01/30 11:17:09;;;;;;;32.90;14.93;;;;;;;6.03;66.00;100300.56;5055033;28;20035;-81
2022/01/30 11:19:47;;;;;;;40.70;20.30;;;;;;;6.15;65.73;100289.03;5056241;28;20039;-81
2022/01/30 11:22:15;;;;;;;29.77;15.20;;;;;;;6.18;65.08;100278.16;5069054;28;20067;-81
2022/01/30 11:24:49;;;;;;;29.33;17.55;;;;;;;6.43;64.95;100283.50;5053625;28;20030;-84
2022/01/30 11:27:16;;;;;;;19.85;10.43;;;;;;;6.49;64.17;100259.03;5033867;28;20030;-86
2022/01/30 11:29:42;;;;;;;18.42;10.02;;;;;;;6.52;63.39;100256.16;5049659;28;20029;-84
2022/01/30 11:32:08;;;;;;;26.55;13.40;;;;;;;6.72;62.41;100268.09;5048753;28;20049;-83
2022/01/30 11:34:36;;;;;;;20.58;12.05;;;;;;;6.78;62.49;100259.66;5038363;28;20095;-83
2022/01/30 11:37:03;;;;;;;18.08;11.35;;;;;;;6.80;62.31;100254.19;5036212;28;20017;-87
2022/01/30 11:39:29;;;;;;;21.17;12.85;;;;;;;6.77;61.62;100227.69;5018456;28;20033;-81
2022/01/30 11:42:09;;;;;;;26.17;13.77;;;;;;;6.71;60.79;100222.78;5040701;28;20444;-81
2022/01/30 11:44:36;;;;;;;30.15;17.40;;;;;;;6.76;61.58;100231.34;5038593;28;20040;-82
2022/01/30 11:47:01;;;;;;;25.17;14.25;;;;;;;6.70;61.66;100229.06;5042913;28;20033;-80
2022/01/30 11:49:41;;;;;;;24.60;13.40;;;;;;;6.72;61.50;100224.50;5034879;28;20099;-89
2022/01/30 11:52:10;;;;;;;32.50;15.82;;;;;;;6.80;61.85;100211.41;5019979;28;20136;-83
2022/01/30 11:54:42;;;;;;;31.35;15.13;;;;;;;6.93;61.45;100214.91;5050972;28;20036;-81
2022/01/30 11:57:23;;;;;;;24.60;14.05;;;;;;;6.99;61.09;100215.31;5045809;28;20475;-82
2022/01/30 12:00:00;;;;;;;26.17;15.30;;;;;;;6.95;60.82;100199.59;5037163;28;20025;-82
2022/01/30 12:02:36;;;;;;;23.55;13.98;;;;;;;6.97;61.13;100187.00;5034220;28;20552;-78
2022/01/30 12:05:04;;;;;;;22.88;14.50;;;;;;;7.05;60.42;100192.63;5034486;28;20018;-83
2022/01/30 12:07:45;;;;;;;32.97;18.13;;;;;;;7.12;60.03;100191.22;5034633;28;20032;-82
2022/01/30 12:10:20;;;;;;;32.75;16.27;;;;;;;7.23;60.14;100190.41;5034182;28;20029;-81
2022/01/30 12:13:01;;;;;;;23.10;13.20;;;;;;;7.29;59.83;100166.72;5039756;28;20025;-81
2022/01/30 12:15:53;;;;;;;29.48;14.73;;;;;;;7.51;59.74;100182.03;5043830;28;20017;-79
2022/01/30 12:18:44;;;;;;;24.83;14.37;;;;;;;7.49;58.92;100175.94;5023008;28;20080;-80